BGF444 LBSF-LBWN
Flight info
| Callsign | BGF444 |
|---|---|
| Flight time | 0h 37m |
| Altitude | 27000 |
| Route | UMPIT T343 SOPIS DCT XANEX N605 DICXA |
| Aircraft | A319/M-SDE3FGHIRWY/LB1 |
Departure
| Time | 2026-04-29 07:48 |
|---|---|
| Airport | Sofia Airport (LBSF) |
Arrival
| Time | 2026-04-29 08:26 |
|---|---|
| Airport | Varna Airport (LBWN) |
| Time | Latitude | Longitude | Altitude | Speed | Heading |
|---|---|---|---|---|---|
| 2026-04-29 07:32 | 42.69107 | 23.39602 | 1757 ft | 0 kts | 287° |
| 2026-04-29 07:45 | 42.69113 | 23.39576 | 1757 ft | 6 kts | 297° |
| 2026-04-29 07:45 | 42.69158 | 23.39546 | 1757 ft | 9 kts | 359° |
| 2026-04-29 07:46 | 42.69227 | 23.39538 | 1757 ft | 11 kts | 2° |
| 2026-04-29 07:46 | 42.69296 | 23.39549 | 1757 ft | 10 kts | 8° |
| 2026-04-29 07:46 | 42.69373 | 23.39558 | 1757 ft | 12 kts | 5° |
| 2026-04-29 07:46 | 42.69467 | 23.39568 | 1757 ft | 15 kts | 4° |
| 2026-04-29 07:47 | 42.69532 | 23.39576 | 1757 ft | 10 kts | 6° |
| 2026-04-29 07:47 | 42.69607 | 23.39586 | 1757 ft | 12 kts | 5° |
| 2026-04-29 07:47 | 42.69698 | 23.39596 | 1757 ft | 14 kts | 5° |
| 2026-04-29 07:47 | 42.69760 | 23.39614 | 1757 ft | 7 kts | 41° |
| 2026-04-29 07:48 | 42.69768 | 23.39707 | 1757 ft | 23 kts | 96° |
| 2026-04-29 07:48 | 42.69723 | 23.40472 | 1757 ft | 134 kts | 94° |
| 2026-04-29 07:48 | 42.69641 | 23.42010 | 2267 ft | 168 kts | 94° |
| 2026-04-29 07:48 | 42.69583 | 23.43567 | 3440 ft | 166 kts | 91° |
| 2026-04-29 07:49 | 42.69536 | 23.45127 | 4454 ft | 164 kts | 91° |
| 2026-04-29 07:49 | 42.69634 | 23.46652 | 5394 ft | 164 kts | 73° |
| 2026-04-29 07:49 | 42.70083 | 23.48152 | 6083 ft | 182 kts | 65° |
| 2026-04-29 07:49 | 42.70617 | 23.49814 | 6719 ft | 201 kts | 68° |
| 2026-04-29 07:50 | 42.70999 | 23.51749 | 7381 ft | 224 kts | 79° |
| 2026-04-29 07:50 | 42.71305 | 23.53930 | 8174 ft | 245 kts | 79° |
| 2026-04-29 07:50 | 42.71647 | 23.56288 | 9079 ft | 263 kts | 78° |
| 2026-04-29 07:50 | 42.71904 | 23.57964 | 9752 ft | 273 kts | 78° |
| 2026-04-29 07:51 | 42.72321 | 23.60550 | 10730 ft | 288 kts | 77° |
| 2026-04-29 07:51 | 42.72772 | 23.63341 | 11590 ft | 308 kts | 76° |
| 2026-04-29 07:51 | 42.73228 | 23.66257 | 12490 ft | 323 kts | 75° |
| 2026-04-29 07:51 | 42.73704 | 23.69320 | 13315 ft | 339 kts | 75° |
| 2026-04-29 07:52 | 42.74199 | 23.72523 | 14132 ft | 353 kts | 75° |
| 2026-04-29 07:52 | 42.74706 | 23.75827 | 15103 ft | 360 kts | 76° |
| 2026-04-29 07:52 | 42.75220 | 23.79200 | 16015 ft | 369 kts | 75° |
| 2026-04-29 07:52 | 42.75754 | 23.82681 | 16728 ft | 383 kts | 75° |
| 2026-04-29 07:53 | 42.76309 | 23.86288 | 17491 ft | 394 kts | 75° |
| 2026-04-29 07:53 | 42.76866 | 23.89935 | 18593 ft | 391 kts | 75° |
| 2026-04-29 07:53 | 42.77408 | 23.93515 | 19966 ft | 381 kts | 75° |
| 2026-04-29 07:53 | 42.77938 | 23.97024 | 21161 ft | 378 kts | 75° |
| 2026-04-29 07:54 | 42.78471 | 24.00545 | 22014 ft | 383 kts | 75° |
| 2026-04-29 07:54 | 42.79014 | 24.04112 | 22924 ft | 384 kts | 74° |
| 2026-04-29 07:54 | 42.79549 | 24.07646 | 23983 ft | 381 kts | 75° |
| 2026-04-29 07:54 | 42.80080 | 24.11177 | 24910 ft | 380 kts | 75° |
| 2026-04-29 07:55 | 42.80609 | 24.14697 | 25831 ft | 380 kts | 74° |
| 2026-04-29 07:55 | 42.81138 | 24.18226 | 26548 ft | 380 kts | 75° |
| 2026-04-29 07:55 | 42.81665 | 24.21750 | 26977 ft | 379 kts | 75° |
| 2026-04-29 07:55 | 42.82188 | 24.25265 | 27133 ft | 378 kts | 73° |
| 2026-04-29 07:56 | 42.82705 | 24.28734 | 27128 ft | 370 kts | 73° |
| 2026-04-29 07:56 | 42.83213 | 24.32157 | 27135 ft | 369 kts | 73° |
| 2026-04-29 07:56 | 42.83722 | 24.35578 | 27147 ft | 369 kts | 73° |
| 2026-04-29 07:56 | 42.84232 | 24.39004 | 27153 ft | 369 kts | 73° |
| 2026-04-29 07:57 | 42.84738 | 24.42426 | 27156 ft | 368 kts | 73° |
| 2026-04-29 07:57 | 42.85244 | 24.45851 | 27159 ft | 369 kts | 73° |
| 2026-04-29 07:57 | 42.85747 | 24.49275 | 27161 ft | 369 kts | 73° |
| 2026-04-29 07:57 | 42.86250 | 24.52708 | 27162 ft | 369 kts | 73° |
| 2026-04-29 07:58 | 42.86746 | 24.56096 | 27163 ft | 369 kts | 73° |
| 2026-04-29 07:58 | 42.87247 | 24.59526 | 27160 ft | 369 kts | 73° |
| 2026-04-29 07:58 | 42.87756 | 24.63002 | 27157 ft | 369 kts | 73° |
| 2026-04-29 07:58 | 42.88256 | 24.66439 | 27154 ft | 369 kts | 73° |
| 2026-04-29 07:59 | 42.88754 | 24.69873 | 27152 ft | 369 kts | 73° |
| 2026-04-29 07:59 | 42.89251 | 24.73305 | 27148 ft | 369 kts | 73° |
| 2026-04-29 07:59 | 42.89746 | 24.76745 | 27129 ft | 370 kts | 73° |
| 2026-04-29 07:59 | 42.90244 | 24.80188 | 27117 ft | 370 kts | 73° |
| 2026-04-29 08:00 | 42.90734 | 24.83589 | 27114 ft | 370 kts | 73° |
| 2026-04-29 08:00 | 42.91236 | 24.87083 | 27112 ft | 371 kts | 73° |
| 2026-04-29 08:00 | 42.91723 | 24.90493 | 27127 ft | 371 kts | 73° |
| 2026-04-29 08:00 | 42.92214 | 24.93940 | 27142 ft | 371 kts | 73° |
| 2026-04-29 08:01 | 42.92708 | 24.97394 | 27149 ft | 371 kts | 73° |
| 2026-04-29 08:01 | 42.93201 | 25.00844 | 27150 ft | 371 kts | 73° |
| 2026-04-29 08:01 | 42.93699 | 25.04345 | 27159 ft | 370 kts | 73° |
| 2026-04-29 08:01 | 42.94186 | 25.07790 | 27182 ft | 370 kts | 73° |
| 2026-04-29 08:02 | 42.94675 | 25.11235 | 27181 ft | 370 kts | 73° |
| 2026-04-29 08:02 | 42.95155 | 25.14636 | 27165 ft | 370 kts | 73° |
| 2026-04-29 08:02 | 42.95641 | 25.18086 | 27143 ft | 371 kts | 73° |
| 2026-04-29 08:02 | 42.96125 | 25.21541 | 27123 ft | 371 kts | 73° |
| 2026-04-29 08:03 | 42.96609 | 25.25003 | 27104 ft | 372 kts | 73° |
| 2026-04-29 08:03 | 42.97093 | 25.28470 | 27108 ft | 371 kts | 73° |
| 2026-04-29 08:03 | 42.97578 | 25.31935 | 27105 ft | 372 kts | 73° |
| 2026-04-29 08:03 | 42.98061 | 25.35398 | 27105 ft | 372 kts | 73° |
| 2026-04-29 08:04 | 42.98541 | 25.38863 | 27107 ft | 372 kts | 73° |
| 2026-04-29 08:04 | 42.99020 | 25.42331 | 27108 ft | 372 kts | 73° |
| 2026-04-29 08:04 | 42.99498 | 25.45799 | 27109 ft | 372 kts | 73° |
| 2026-04-29 08:04 | 42.99975 | 25.49267 | 27110 ft | 372 kts | 73° |
| 2026-04-29 08:05 | 43.00451 | 25.52736 | 27110 ft | 372 kts | 73° |
| 2026-04-29 08:05 | 43.00928 | 25.56206 | 27110 ft | 372 kts | 73° |
| 2026-04-29 08:05 | 43.01403 | 25.59675 | 27098 ft | 372 kts | 73° |
| 2026-04-29 08:05 | 43.01875 | 25.63151 | 27103 ft | 372 kts | 74° |
| 2026-04-29 08:06 | 43.02348 | 25.66634 | 27100 ft | 373 kts | 74° |
| 2026-04-29 08:06 | 43.02819 | 25.70112 | 27118 ft | 372 kts | 74° |
| 2026-04-29 08:06 | 43.03292 | 25.73593 | 27124 ft | 372 kts | 73° |
| 2026-04-29 08:06 | 43.03764 | 25.77063 | 26962 ft | 371 kts | 74° |
| 2026-04-29 08:07 | 43.04235 | 25.80537 | 26684 ft | 373 kts | 75° |
| 2026-04-29 08:07 | 43.04708 | 25.84041 | 26444 ft | 376 kts | 75° |
| 2026-04-29 08:07 | 43.05181 | 25.87567 | 26202 ft | 379 kts | 75° |
| 2026-04-29 08:07 | 43.05654 | 25.91118 | 25835 ft | 380 kts | 75° |
| 2026-04-29 08:08 | 43.06129 | 25.94685 | 25305 ft | 383 kts | 75° |
| 2026-04-29 08:08 | 43.06609 | 25.98286 | 24743 ft | 386 kts | 75° |
| 2026-04-29 08:08 | 43.07091 | 26.01906 | 24172 ft | 389 kts | 75° |
| 2026-04-29 08:08 | 43.07577 | 26.05564 | 23597 ft | 392 kts | 75° |
| 2026-04-29 08:09 | 43.08063 | 26.09251 | 23020 ft | 395 kts | 75° |
| 2026-04-29 08:09 | 43.08551 | 26.12958 | 22491 ft | 396 kts | 75° |
| 2026-04-29 08:09 | 43.09039 | 26.16666 | 21978 ft | 397 kts | 75° |
| 2026-04-29 08:09 | 43.09528 | 26.20385 | 21461 ft | 397 kts | 75° |
| 2026-04-29 08:10 | 43.10014 | 26.24108 | 20946 ft | 398 kts | 75° |
| 2026-04-29 08:10 | 43.10501 | 26.27826 | 20462 ft | 395 kts | 76° |
| 2026-04-29 08:10 | 43.10975 | 26.31490 | 20048 ft | 387 kts | 76° |
| 2026-04-29 08:10 | 43.11438 | 26.35097 | 19558 ft | 383 kts | 76° |
| 2026-04-29 08:11 | 43.11901 | 26.38667 | 19056 ft | 379 kts | 76° |
| 2026-04-29 08:11 | 43.12358 | 26.42197 | 18602 ft | 375 kts | 76° |
| 2026-04-29 08:11 | 43.12810 | 26.45686 | 18161 ft | 370 kts | 76° |
| 2026-04-29 08:11 | 43.13260 | 26.49151 | 17574 ft | 370 kts | 76° |
| 2026-04-29 08:12 | 43.13725 | 26.52644 | 16871 ft | 374 kts | 76° |
| 2026-04-29 08:12 | 43.14195 | 26.56127 | 16464 ft | 369 kts | 76° |
| 2026-04-29 08:12 | 43.14660 | 26.59550 | 16038 ft | 364 kts | 75° |
| 2026-04-29 08:12 | 43.15121 | 26.62942 | 15606 ft | 360 kts | 76° |
| 2026-04-29 08:13 | 43.15573 | 26.66295 | 15197 ft | 356 kts | 76° |
| 2026-04-29 08:13 | 43.16020 | 26.69619 | 14750 ft | 354 kts | 76° |
| 2026-04-29 08:13 | 43.16461 | 26.72907 | 14413 ft | 346 kts | 76° |
| 2026-04-29 08:13 | 43.16884 | 26.76100 | 14136 ft | 337 kts | 76° |
| 2026-04-29 08:14 | 43.17305 | 26.79253 | 13604 ft | 337 kts | 76° |
| 2026-04-29 08:14 | 43.17727 | 26.82411 | 13098 ft | 336 kts | 76° |
| 2026-04-29 08:14 | 43.18144 | 26.85547 | 12625 ft | 333 kts | 76° |
| 2026-04-29 08:14 | 43.18545 | 26.88663 | 12154 ft | 331 kts | 77° |
| 2026-04-29 08:15 | 43.18879 | 26.91751 | 11861 ft | 323 kts | 78° |
| 2026-04-29 08:15 | 43.19179 | 26.94760 | 11612 ft | 314 kts | 78° |
| 2026-04-29 08:15 | 43.19468 | 26.97691 | 11353 ft | 309 kts | 78° |
| 2026-04-29 08:15 | 43.19764 | 27.00598 | 11089 ft | 308 kts | 78° |
| 2026-04-29 08:16 | 43.20065 | 27.03499 | 10836 ft | 307 kts | 78° |
| 2026-04-29 08:16 | 43.20367 | 27.06386 | 10550 ft | 305 kts | 78° |
| 2026-04-29 08:16 | 43.20667 | 27.09259 | 10295 ft | 302 kts | 79° |
| 2026-04-29 08:16 | 43.20962 | 27.12076 | 10160 ft | 294 kts | 81° |
| 2026-04-29 08:17 | 43.21239 | 27.14825 | 10035 ft | 290 kts | 81° |
| 2026-04-29 08:17 | 43.21513 | 27.17568 | 9788 ft | 290 kts | 81° |
| 2026-04-29 08:17 | 43.21788 | 27.20311 | 9345 ft | 292 kts | 81° |
| 2026-04-29 08:17 | 43.22065 | 27.23060 | 8897 ft | 290 kts | 81° |
| 2026-04-29 08:18 | 43.22339 | 27.25758 | 8426 ft | 288 kts | 81° |
| 2026-04-29 08:18 | 43.22619 | 27.28499 | 7958 ft | 285 kts | 81° |
| 2026-04-29 08:18 | 43.22886 | 27.31167 | 7520 ft | 280 kts | 81° |
| 2026-04-29 08:18 | 43.23145 | 27.33761 | 7061 ft | 277 kts | 82° |
| 2026-04-29 08:19 | 43.23404 | 27.36360 | 6606 ft | 274 kts | 82° |
| 2026-04-29 08:19 | 43.23666 | 27.38986 | 6148 ft | 275 kts | 82° |
| 2026-04-29 08:19 | 43.23924 | 27.41563 | 5797 ft | 268 kts | 82° |
| 2026-04-29 08:19 | 43.24168 | 27.44020 | 5663 ft | 251 kts | 82° |
| 2026-04-29 08:20 | 43.24395 | 27.46319 | 5556 ft | 235 kts | 82° |
| 2026-04-29 08:20 | 43.24608 | 27.48474 | 5457 ft | 221 kts | 82° |
| 2026-04-29 08:20 | 43.24810 | 27.50505 | 5366 ft | 209 kts | 82° |
| 2026-04-29 08:20 | 43.25002 | 27.52439 | 5095 ft | 202 kts | 82° |
| 2026-04-29 08:21 | 43.25193 | 27.54347 | 4736 ft | 202 kts | 82° |
| 2026-04-29 08:21 | 43.25376 | 27.56241 | 4385 ft | 200 kts | 83° |
| 2026-04-29 08:21 | 43.25378 | 27.58143 | 4104 ft | 200 kts | 94° |
| 2026-04-29 08:21 | 43.25210 | 27.60027 | 3824 ft | 199 kts | 97° |
| 2026-04-29 08:22 | 43.25032 | 27.61926 | 3439 ft | 204 kts | 97° |
| 2026-04-29 08:22 | 43.24866 | 27.63880 | 3038 ft | 208 kts | 98° |
| 2026-04-29 08:22 | 43.24693 | 27.65809 | 2671 ft | 195 kts | 99° |
| 2026-04-29 08:22 | 43.24511 | 27.67531 | 2464 ft | 173 kts | 101° |
| 2026-04-29 08:23 | 43.24366 | 27.69096 | 2208 ft | 160 kts | 99° |
| 2026-04-29 08:23 | 43.24265 | 27.70589 | 1920 ft | 153 kts | 97° |
| 2026-04-29 08:23 | 43.24181 | 27.72015 | 1608 ft | 148 kts | 99° |
| 2026-04-29 08:23 | 43.24043 | 27.73383 | 1347 ft | 140 kts | 100° |
| 2026-04-29 08:24 | 43.23896 | 27.74650 | 1163 ft | 130 kts | 99° |
| 2026-04-29 08:24 | 43.23782 | 27.75838 | 970 ft | 123 kts | 97° |
| 2026-04-29 08:24 | 43.23683 | 27.76991 | 800 ft | 120 kts | 97° |
| 2026-04-29 08:24 | 43.23586 | 27.78103 | 664 ft | 115 kts | 96° |
| 2026-04-29 08:25 | 43.23498 | 27.79181 | 518 ft | 113 kts | 96° |
| 2026-04-29 08:25 | 43.23400 | 27.80244 | 371 ft | 111 kts | 97° |
| 2026-04-29 08:25 | 43.23306 | 27.81282 | 248 ft | 110 kts | 97° |
| 2026-04-29 08:25 | 43.23225 | 27.82168 | 245 ft | 73 kts | 97° |
| 2026-04-29 08:26 | 43.23177 | 27.82703 | 245 ft | 33 kts | 97° |
| 2026-04-29 08:26 | 43.23153 | 27.82965 | 245 ft | 25 kts | 97° |
| 2026-04-29 08:26 | 43.23133 | 27.83204 | 245 ft | 21 kts | 96° |
| 2026-04-29 08:26 | 43.23172 | 27.83285 | 245 ft | 11 kts | 17° |
| 2026-04-29 08:27 | 43.23256 | 27.83301 | 245 ft | 13 kts | 7° |
| 2026-04-29 08:27 | 43.23346 | 27.83317 | 245 ft | 7 kts | 8° |
| 2026-04-29 08:27 | 43.23377 | 27.83319 | 245 ft | 6 kts | 5° |
| 2026-04-29 08:27 | 43.23426 | 27.83326 | 245 ft | 9 kts | 8° |
| 2026-04-29 08:28 | 43.23485 | 27.83336 | 245 ft | 6 kts | 358° |
| 2026-04-29 08:28 | 43.23516 | 27.83322 | 245 ft | 5 kts | 319° |
| 2026-04-29 08:28 | 43.23535 | 27.83271 | 245 ft | 7 kts | 282° |
| 2026-04-29 08:28 | 43.23543 | 27.83190 | 245 ft | 9 kts | 280° |
| 2026-04-29 08:29 | 43.23545 | 27.83100 | 245 ft | 10 kts | 271° |
| 2026-04-29 08:29 | 43.23550 | 27.83025 | 245 ft | 7 kts | 279° |
| 2026-04-29 08:29 | 43.23557 | 27.82959 | 245 ft | 7 kts | 277° |
| 2026-04-29 08:29 | 43.23560 | 27.82887 | 245 ft | 8 kts | 266° |
| 2026-04-29 08:30 | 43.23561 | 27.82817 | 245 ft | 7 kts | 304° |
| 2026-04-29 08:30 | 43.23593 | 27.82777 | 245 ft | 0 kts | 320° |